sensor_id;sensor_type;location;lat;lon;timestamp;P1;durP1;ratioP1;P2;durP2;ratioP2
67597;SDS011;62026;39.230;9.122;2023-02-03T02:42:00;12.48;;;2.80;;
67597;SDS011;62026;39.230;9.122;2023-02-03T02:44:43;10.93;;;2.97;;
67597;SDS011;62026;39.230;9.122;2023-02-03T02:47:20;9.55;;;3.33;;
67597;SDS011;62026;39.230;9.122;2023-02-03T02:52:33;10.10;;;2.75;;
67597;SDS011;62026;39.230;9.122;2023-02-03T02:55:10;8.98;;;2.60;;
67597;SDS011;62026;39.230;9.122;2023-02-03T02:57:43;6.90;;;2.38;;
67597;SDS011;62026;39.230;9.122;2023-02-03T03:00:11;13.23;;;2.83;;
67597;SDS011;62026;39.230;9.122;2023-02-03T03:02:38;7.78;;;2.10;;
67597;SDS011;62026;39.230;9.122;2023-02-03T03:05:05;7.03;;;2.20;;
67597;SDS011;62026;39.230;9.122;2023-02-03T03:07:41;8.70;;;2.40;;
67597;SDS011;62026;39.230;9.122;2023-02-03T03:10:26;5.57;;;2.20;;
67597;SDS011;62026;39.230;9.122;2023-02-03T03:12:58;8.02;;;2.35;;
67597;SDS011;62026;39.230;9.122;2023-02-03T03:15:32;6.78;;;2.20;;
67597;SDS011;62026;39.230;9.122;2023-02-03T03:18:19;5.35;;;1.77;;
67597;SDS011;62026;39.230;9.122;2023-02-03T03:21:00;8.43;;;2.20;;
67597;SDS011;62026;39.230;9.122;2023-02-03T03:23:41;8.48;;;2.25;;
67597;SDS011;62026;39.230;9.122;2023-02-03T03:28:44;8.85;;;1.88;;
67597;SDS011;62026;39.230;9.122;2023-02-03T03:31:38;7.60;;;2.00;;
67597;SDS011;62026;39.230;9.122;2023-02-03T03:34:06;4.53;;;1.90;;
67597;SDS011;62026;39.230;9.122;2023-02-03T03:36:38;7.53;;;1.88;;
67597;SDS011;62026;39.230;9.122;2023-02-03T03:45:04;9.90;;;2.50;;
67597;SDS011;62026;39.230;9.122;2023-02-03T03:48:08;7.43;;;2.72;;
67597;SDS011;62026;39.230;9.122;2023-02-03T03:50:46;10.80;;;2.70;;
67597;SDS011;62026;39.230;9.122;2023-02-03T03:53:21;7.15;;;2.70;;
67597;SDS011;62026;39.230;9.122;2023-02-03T03:55:52;9.57;;;2.72;;
67597;SDS011;62026;39.230;9.122;2023-02-03T03:58:25;11.07;;;3.35;;
67597;SDS011;62026;39.230;9.122;2023-02-03T04:00:57;6.93;;;2.65;;
67597;SDS011;62026;39.230;9.122;2023-02-03T04:03:36;7.05;;;2.40;;
67597;SDS011;62026;39.230;9.122;2023-02-03T04:06:08;8.43;;;2.50;;
67597;SDS011;62026;39.230;9.122;2023-02-03T04:08:34;6.55;;;2.72;;
67597;SDS011;62026;39.230;9.122;2023-02-03T04:11:00;12.32;;;2.78;;
67597;SDS011;62026;39.230;9.122;2023-02-03T04:13:26;14.60;;;3.05;;
67597;SDS011;62026;39.230;9.122;2023-02-03T04:15:52;6.45;;;2.90;;
67597;SDS011;62026;39.230;9.122;2023-02-03T04:18:18;6.40;;;3.00;;
67597;SDS011;62026;39.230;9.122;2023-02-03T04:20:44;9.18;;;3.08;;
67597;SDS011;62026;39.230;9.122;2023-02-03T04:23:10;11.65;;;3.13;;
67597;SDS011;62026;39.230;9.122;2023-02-03T04:25:36;11.18;;;3.05;;
67597;SDS011;62026;39.230;9.122;2023-02-03T04:28:02;12.10;;;3.10;;
67597;SDS011;62026;39.230;9.122;2023-02-03T04:30:30;7.47;;;2.97;;
67597;SDS011;62026;39.230;9.122;2023-02-03T04:32:56;7.35;;;3.00;;
67597;SDS011;62026;39.230;9.122;2023-02-03T04:35:22;8.80;;;3.25;;
67597;SDS011;62026;39.230;9.122;2023-02-03T04:37:48;11.30;;;3.00;;
67597;SDS011;62026;39.230;9.122;2023-02-03T04:40:14;10.50;;;2.85;;
67597;SDS011;62026;39.230;9.122;2023-02-03T04:42:41;9.02;;;2.70;;
67597;SDS011;62026;39.230;9.122;2023-02-03T04:45:08;7.55;;;3.08;;
67597;SDS011;62026;39.230;9.122;2023-02-03T04:47:35;7.68;;;2.45;;
67597;SDS011;62026;39.230;9.122;2023-02-03T04:50:02;5.47;;;2.63;;
67597;SDS011;62026;39.230;9.122;2023-02-03T04:52:28;9.70;;;2.85;;
67597;SDS011;62026;39.230;9.122;2023-02-03T04:54:54;9.02;;;2.60;;
67597;SDS011;62026;39.230;9.122;2023-02-03T04:57:20;9.80;;;2.55;;
67597;SDS011;62026;39.230;9.122;2023-02-03T04:59:46;9.02;;;3.03;;
67597;SDS011;62026;39.230;9.122;2023-02-03T05:02:11;12.95;;;2.72;;
67597;SDS011;62026;39.230;9.122;2023-02-03T05:04:38;9.30;;;3.20;;
67597;SDS011;62026;39.230;9.122;2023-02-03T05:07:03;4.80;;;2.35;;
67597;SDS011;62026;39.230;9.122;2023-02-03T05:09:29;7.97;;;2.70;;
67597;SDS011;62026;39.230;9.122;2023-02-03T05:11:55;7.85;;;2.60;;
67597;SDS011;62026;39.230;9.122;2023-02-03T05:14:21;8.20;;;2.60;;
67597;SDS011;62026;39.230;9.122;2023-02-03T05:16:47;7.07;;;2.70;;
67597;SDS011;62026;39.230;9.122;2023-02-03T05:19:13;10.23;;;3.25;;
67597;SDS011;62026;39.230;9.122;2023-02-03T05:21:39;7.55;;;2.50;;
67597;SDS011;62026;39.230;9.122;2023-02-03T05:24:05;6.72;;;2.70;;
67597;SDS011;62026;39.230;9.122;2023-02-03T05:26:32;5.75;;;2.22;;
67597;SDS011;62026;39.230;9.122;2023-02-03T05:28:59;12.48;;;3.20;;
67597;SDS011;62026;39.230;9.122;2023-02-03T05:31:26;6.57;;;2.47;;
67597;SDS011;62026;39.230;9.122;2023-02-03T05:33:52;7.97;;;2.80;;
67597;SDS011;62026;39.230;9.122;2023-02-03T05:36:18;8.82;;;2.17;;
67597;SDS011;62026;39.230;9.122;2023-02-03T05:38:44;8.90;;;3.28;;
67597;SDS011;62026;39.230;9.122;2023-02-03T05:41:10;7.45;;;2.80;;
67597;SDS011;62026;39.230;9.122;2023-02-03T05:43:56;8.48;;;3.15;;
67597;SDS011;62026;39.230;9.122;2023-02-03T05:46:22;7.03;;;2.70;;
67597;SDS011;62026;39.230;9.122;2023-02-03T05:48:48;5.45;;;2.70;;
67597;SDS011;62026;39.230;9.122;2023-02-03T05:51:14;8.52;;;2.85;;
67597;SDS011;62026;39.230;9.122;2023-02-03T05:53:39;8.57;;;2.85;;
67597;SDS011;62026;39.230;9.122;2023-02-03T05:56:05;12.95;;;3.03;;
67597;SDS011;62026;39.230;9.122;2023-02-03T05:58:31;5.40;;;2.83;;
67597;SDS011;62026;39.230;9.122;2023-02-03T06:00:57;5.55;;;2.70;;
67597;SDS011;62026;39.230;9.122;2023-02-03T06:03:23;8.05;;;2.78;;
67597;SDS011;62026;39.230;9.122;2023-02-03T06:05:49;7.30;;;3.03;;
67597;SDS011;62026;39.230;9.122;2023-02-03T06:08:15;8.15;;;2.80;;
67597;SDS011;62026;39.230;9.122;2023-02-03T06:10:41;8.50;;;2.78;;
67597;SDS011;62026;39.230;9.122;2023-02-03T06:13:08;7.63;;;2.78;;
67597;SDS011;62026;39.230;9.122;2023-02-03T06:15:39;8.55;;;3.05;;
67597;SDS011;62026;39.230;9.122;2023-02-03T06:18:05;8.13;;;3.45;;
67597;SDS011;62026;39.230;9.122;2023-02-03T06:20:33;6.43;;;3.03;;
67597;SDS011;62026;39.230;9.122;2023-02-03T06:22:59;10.43;;;3.05;;
67597;SDS011;62026;39.230;9.122;2023-02-03T06:25:25;7.53;;;3.03;;
67597;SDS011;62026;39.230;9.122;2023-02-03T06:27:52;9.82;;;2.88;;
67597;SDS011;62026;39.230;9.122;2023-02-03T06:30:18;9.35;;;3.35;;
67597;SDS011;62026;39.230;9.122;2023-02-03T06:32:44;10.00;;;3.30;;
67597;SDS011;62026;39.230;9.122;2023-02-03T06:35:12;9.10;;;3.30;;
67597;SDS011;62026;39.230;9.122;2023-02-03T06:37:38;9.73;;;3.22;;
67597;SDS011;62026;39.230;9.122;2023-02-03T06:40:05;10.20;;;3.05;;
67597;SDS011;62026;39.230;9.122;2023-02-03T06:42:32;14.43;;;3.42;;
67597;SDS011;62026;39.230;9.122;2023-02-03T06:44:58;9.05;;;3.25;;
67597;SDS011;62026;39.230;9.122;2023-02-03T06:47:23;10.40;;;2.70;;
67597;SDS011;62026;39.230;9.122;2023-02-03T06:49:49;10.93;;;2.97;;
67597;SDS011;62026;39.230;9.122;2023-02-03T06:52:16;8.13;;;2.67;;
67597;SDS011;62026;39.230;9.122;2023-02-03T06:54:43;12.35;;;3.00;;
67597;SDS011;62026;39.230;9.122;2023-02-03T06:57:09;9.15;;;2.88;;
67597;SDS011;62026;39.230;9.122;2023-02-03T06:59:35;8.27;;;3.17;;
67597;SDS011;62026;39.230;9.122;2023-02-03T07:02:01;14.50;;;3.22;;
67597;SDS011;62026;39.230;9.122;2023-02-03T07:04:28;11.82;;;3.05;;
67597;SDS011;62026;39.230;9.122;2023-02-03T07:06:57;8.38;;;2.90;;
67597;SDS011;62026;39.230;9.122;2023-02-03T07:09:23;8.43;;;2.85;;
67597;SDS011;62026;39.230;9.122;2023-02-03T07:11:49;8.52;;;2.92;;
67597;SDS011;62026;39.230;9.122;2023-02-03T07:14:15;12.40;;;3.40;;
67597;SDS011;62026;39.230;9.122;2023-02-03T07:16:41;10.13;;;3.30;;
67597;SDS011;62026;39.230;9.122;2023-02-03T07:19:07;12.30;;;3.33;;
67597;SDS011;62026;39.230;9.122;2023-02-03T07:21:33;13.57;;;3.70;;
67597;SDS011;62026;39.230;9.122;2023-02-03T07:23:59;12.32;;;3.33;;
67597;SDS011;62026;39.230;9.122;2023-02-03T07:26:27;9.90;;;3.60;;
67597;SDS011;62026;39.230;9.122;2023-02-03T07:28:53;10.45;;;4.05;;
67597;SDS011;62026;39.230;9.122;2023-02-03T07:31:19;16.67;;;4.80;;
67597;SDS011;62026;39.230;9.122;2023-02-03T07:33:45;18.23;;;4.60;;
67597;SDS011;62026;39.230;9.122;2023-02-03T07:36:11;11.02;;;4.18;;
67597;SDS011;62026;39.230;9.122;2023-02-03T07:38:37;10.07;;;4.70;;
67597;SDS011;62026;39.230;9.122;2023-02-03T07:41:04;17.25;;;4.38;;
67597;SDS011;62026;39.230;9.122;2023-02-03T07:43:30;13.27;;;4.35;;
67597;SDS011;62026;39.230;9.122;2023-02-03T07:45:56;12.07;;;4.13;;
67597;SDS011;62026;39.230;9.122;2023-02-03T07:48:22;11.07;;;3.63;;
67597;SDS011;62026;39.230;9.122;2023-02-03T07:50:49;11.00;;;4.10;;
67597;SDS011;62026;39.230;9.122;2023-02-03T07:53:17;11.10;;;3.95;;
67597;SDS011;62026;39.230;9.122;2023-02-03T07:55:43;8.60;;;3.85;;
67597;SDS011;62026;39.230;9.122;2023-02-03T07:58:09;10.88;;;3.63;;
67597;SDS011;62026;39.230;9.122;2023-02-03T08:00:35;13.50;;;3.88;;
67597;SDS011;62026;39.230;9.122;2023-02-03T08:03:01;11.65;;;3.50;;
67597;SDS011;62026;39.230;9.122;2023-02-03T08:05:27;14.40;;;4.05;;
67597;SDS011;62026;39.230;9.122;2023-02-03T08:07:54;9.68;;;4.22;;
67597;SDS011;62026;39.230;9.122;2023-02-03T08:10:21;10.48;;;3.85;;
67597;SDS011;62026;39.230;9.122;2023-02-03T08:12:47;17.35;;;3.65;;
67597;SDS011;62026;39.230;9.122;2023-02-03T08:15:13;11.88;;;4.53;;
67597;SDS011;62026;39.230;9.122;2023-02-03T08:17:39;15.27;;;3.72;;
67597;SDS011;62026;39.230;9.122;2023-02-03T08:20:06;9.90;;;3.70;;
67597;SDS011;62026;39.230;9.122;2023-02-03T08:22:34;14.80;;;3.72;;
67597;SDS011;62026;39.230;9.122;2023-02-03T08:25:00;9.10;;;3.33;;
67597;SDS011;62026;39.230;9.122;2023-02-03T08:27:26;9.40;;;3.72;;
67597;SDS011;62026;39.230;9.122;2023-02-03T08:29:51;13.48;;;4.10;;
67597;SDS011;62026;39.230;9.122;2023-02-03T08:32:19;11.80;;;3.67;;
67597;SDS011;62026;39.230;9.122;2023-02-03T08:34:47;9.98;;;4.60;;
67597;SDS011;62026;39.230;9.122;2023-02-03T08:37:14;11.77;;;3.22;;
67597;SDS011;62026;39.230;9.122;2023-02-03T08:39:43;10.23;;;3.30;;
67597;SDS011;62026;39.230;9.122;2023-02-03T08:42:09;11.50;;;3.22;;
67597;SDS011;62026;39.230;9.122;2023-02-03T08:44:35;11.75;;;3.50;;
67597;SDS011;62026;39.230;9.122;2023-02-03T08:47:03;7.13;;;2.95;;
67597;SDS011;62026;39.230;9.122;2023-02-03T08:49:30;11.57;;;3.42;;
67597;SDS011;62026;39.230;9.122;2023-02-03T08:51:56;12.13;;;3.10;;
67597;SDS011;62026;39.230;9.122;2023-02-03T08:54:23;14.25;;;3.40;;
67597;SDS011;62026;39.230;9.122;2023-02-03T08:56:50;12.18;;;3.47;;
67597;SDS011;62026;39.230;9.122;2023-02-03T08:59:16;17.67;;;3.83;;
67597;SDS011;62026;39.230;9.122;2023-02-03T09:01:42;16.30;;;4.15;;
67597;SDS011;62026;39.230;9.122;2023-02-03T09:04:10;14.18;;;3.83;;
67597;SDS011;62026;39.230;9.122;2023-02-03T09:06:37;6.13;;;2.80;;
67597;SDS011;62026;39.230;9.122;2023-02-03T09:09:04;11.52;;;3.88;;
67597;SDS011;62026;39.230;9.122;2023-02-03T09:11:30;13.27;;;3.80;;
67597;SDS011;62026;39.230;9.122;2023-02-03T09:13:56;17.58;;;3.72;;
67597;SDS011;62026;39.230;9.122;2023-02-03T09:16:22;9.10;;;3.50;;
67597;SDS011;62026;39.230;9.122;2023-02-03T09:18:50;13.60;;;3.42;;
67597;SDS011;62026;39.230;9.122;2023-02-03T09:21:16;8.85;;;3.00;;
67597;SDS011;62026;39.230;9.122;2023-02-03T09:23:43;11.27;;;2.92;;
67597;SDS011;62026;39.230;9.122;2023-02-03T09:26:13;10.57;;;3.45;;
67597;SDS011;62026;39.230;9.122;2023-02-03T09:28:40;9.63;;;2.88;;
67597;SDS011;62026;39.230;9.122;2023-02-03T09:31:07;9.50;;;3.47;;
67597;SDS011;62026;39.230;9.122;2023-02-03T09:33:37;11.63;;;3.15;;
67597;SDS011;62026;39.230;9.122;2023-02-03T09:36:04;7.15;;;2.95;;
67597;SDS011;62026;39.230;9.122;2023-02-03T09:38:32;7.28;;;2.72;;
67597;SDS011;62026;39.230;9.122;2023-02-03T09:41:13;9.32;;;2.67;;
67597;SDS011;62026;39.230;9.122;2023-02-03T09:44:06;6.32;;;2.70;;
67597;SDS011;62026;39.230;9.122;2023-02-03T09:47:02;5.75;;;2.10;;
67597;SDS011;62026;39.230;9.122;2023-02-03T09:49:55;6.82;;;2.53;;
67597;SDS011;62026;39.230;9.122;2023-02-03T09:52:27;9.05;;;2.97;;
67597;SDS011;62026;39.230;9.122;2023-02-03T10:00:41;11.85;;;3.20;;
67597;SDS011;62026;39.230;9.122;2023-02-03T10:06:19;10.00;;;3.45;;
67597;SDS011;62026;39.230;9.122;2023-02-03T10:12:07;8.63;;;3.13;;
67597;SDS011;62026;39.230;9.122;2023-02-03T10:17:51;8.57;;;2.58;;
67597;SDS011;62026;39.230;9.122;2023-02-03T10:23:20;7.60;;;2.50;;
67597;SDS011;62026;39.230;9.122;2023-02-03T10:25:54;6.70;;;2.50;;
67597;SDS011;62026;39.230;9.122;2023-02-03T10:28:25;6.95;;;2.25;;
67597;SDS011;62026;39.230;9.122;2023-02-03T10:31:00;8.45;;;2.30;;
67597;SDS011;62026;39.230;9.122;2023-02-03T10:33:38;10.50;;;2.90;;
67597;SDS011;62026;39.230;9.122;2023-02-03T10:41:37;6.90;;;1.35;;
67597;SDS011;62026;39.230;9.122;2023-02-03T10:44:05;6.50;;;1.15;;
67597;SDS011;62026;39.230;9.122;2023-02-03T10:46:36;7.78;;;1.85;;
67597;SDS011;62026;39.230;9.122;2023-02-03T10:49:06;6.53;;;1.50;;
67597;SDS011;62026;39.230;9.122;2023-02-03T10:51:40;6.03;;;1.60;;
67597;SDS011;62026;39.230;9.122;2023-02-03T10:57:12;8.23;;;1.40;;
67597;SDS011;62026;39.230;9.122;2023-02-03T10:59:41;4.60;;;1.50;;
67597;SDS011;62026;39.230;9.122;2023-02-03T11:02:24;4.97;;;1.45;;
67597;SDS011;62026;39.230;9.122;2023-02-03T11:07:53;6.30;;;1.38;;
67597;SDS011;62026;39.230;9.122;2023-02-03T11:13:11;5.10;;;1.42;;
67597;SDS011;62026;39.230;9.122;2023-02-03T11:16:04;4.95;;;2.00;;
67597;SDS011;62026;39.230;9.122;2023-02-03T11:21:47;3.85;;;1.17;;
67597;SDS011;62026;39.230;9.122;2023-02-03T11:24:36;9.63;;;1.40;;
67597;SDS011;62026;39.230;9.122;2023-02-03T11:27:08;4.60;;;1.25;;
67597;SDS011;62026;39.230;9.122;2023-02-03T11:29:39;6.20;;;1.30;;
67597;SDS011;62026;39.230;9.122;2023-02-03T11:32:32;6.60;;;1.35;;
67597;SDS011;62026;39.230;9.122;2023-02-03T11:35:03;5.63;;;1.27;;
67597;SDS011;62026;39.230;9.122;2023-02-03T11:37:51;6.53;;;1.33;;
67597;SDS011;62026;39.230;9.122;2023-02-03T11:47:46;7.97;;;1.88;;
67597;SDS011;62026;39.230;9.122;2023-02-03T12:13:55;7.50;;;1.80;;
67597;SDS011;62026;39.230;9.122;2023-02-03T12:19:43;8.70;;;1.83;;
67597;SDS011;62026;39.230;9.122;2023-02-03T12:30:54;6.00;;;1.65;;
67597;SDS011;62026;39.230;9.122;2023-02-03T12:33:33;6.13;;;1.80;;
67597;SDS011;62026;39.230;9.122;2023-02-03T12:42:05;5.60;;;1.60;;
67597;SDS011;62026;39.230;9.122;2023-02-03T12:44:47;5.63;;;1.63;;
67597;SDS011;62026;39.230;9.122;2023-02-03T12:47:35;4.88;;;1.40;;
67597;SDS011;62026;39.230;9.122;2023-02-03T12:52:59;5.00;;;1.48;;
67597;SDS011;62026;39.230;9.122;2023-02-03T12:55:38;4.03;;;1.30;;
67597;SDS011;62026;39.230;9.122;2023-02-03T13:00:59;5.63;;;1.30;;
67597;SDS011;62026;39.230;9.122;2023-02-03T13:12:48;9.80;;;1.50;;
67597;SDS011;62026;39.230;9.122;2023-02-03T13:15:27;5.00;;;1.50;;
67597;SDS011;62026;39.230;9.122;2023-02-03T13:20:39;5.25;;;1.58;;
67597;SDS011;62026;39.230;9.122;2023-02-03T13:23:06;4.22;;;1.27;;
67597;SDS011;62026;39.230;9.122;2023-02-03T13:31:47;6.25;;;1.63;;
67597;SDS011;62026;39.230;9.122;2023-02-03T13:34:40;4.70;;;1.58;;
67597;SDS011;62026;39.230;9.122;2023-02-03T13:41:04;6.75;;;1.55;;
67597;SDS011;62026;39.230;9.122;2023-02-03T13:43:59;6.53;;;1.52;;
67597;SDS011;62026;39.230;9.122;2023-02-03T13:46:27;5.10;;;1.70;;
67597;SDS011;62026;39.230;9.122;2023-02-03T13:49:00;7.68;;;1.80;;
67597;SDS011;62026;39.230;9.122;2023-02-03T13:51:31;7.88;;;1.80;;
67597;SDS011;62026;39.230;9.122;2023-02-03T13:54:06;3.77;;;1.80;;
67597;SDS011;62026;39.230;9.122;2023-02-03T13:56:41;6.00;;;1.63;;
67597;SDS011;62026;39.230;9.122;2023-02-03T14:01:42;8.57;;;1.80;;
67597;SDS011;62026;39.230;9.122;2023-02-03T14:19:58;6.40;;;1.98;;
67597;SDS011;62026;39.230;9.122;2023-02-03T14:22:24;7.32;;;1.35;;
67597;SDS011;62026;39.230;9.122;2023-02-03T14:24:53;5.72;;;1.83;;
67597;SDS011;62026;39.230;9.122;2023-02-03T14:27:28;6.80;;;1.70;;
67597;SDS011;62026;39.230;9.122;2023-02-03T14:30:06;6.95;;;1.85;;
67597;SDS011;62026;39.230;9.122;2023-02-03T14:32:48;6.85;;;1.75;;
67597;SDS011;62026;39.230;9.122;2023-02-03T14:35:28;7.78;;;1.92;;
67597;SDS011;62026;39.230;9.122;2023-02-03T14:38:06;3.47;;;1.40;;
67597;SDS011;62026;39.230;9.122;2023-02-03T14:46:31;10.20;;;2.10;;
67597;SDS011;62026;39.230;9.122;2023-02-03T14:55:22;6.68;;;1.85;;
67597;SDS011;62026;39.230;9.122;2023-02-03T14:58:05;7.25;;;1.63;;
67597;SDS011;62026;39.230;9.122;2023-02-03T15:00:47;7.05;;;1.70;;
67597;SDS011;62026;39.230;9.122;2023-02-03T15:03:18;5.60;;;1.58;;
67597;SDS011;62026;39.230;9.122;2023-02-03T15:08:41;5.22;;;2.03;;
67597;SDS011;62026;39.230;9.122;2023-02-03T15:11:15;9.50;;;1.73;;
67597;SDS011;62026;39.230;9.122;2023-02-03T15:13:52;9.75;;;2.00;;
67597;SDS011;62026;39.230;9.122;2023-02-03T15:16:22;8.18;;;1.92;;
67597;SDS011;62026;39.230;9.122;2023-02-03T15:18:57;8.77;;;1.75;;
67597;SDS011;62026;39.230;9.122;2023-02-03T15:21:31;5.05;;;1.52;;
67597;SDS011;62026;39.230;9.122;2023-02-03T15:23:57;9.02;;;1.80;;
67597;SDS011;62026;39.230;9.122;2023-02-03T15:26:24;5.63;;;1.63;;
67597;SDS011;62026;39.230;9.122;2023-02-03T15:28:59;9.82;;;1.50;;
67597;SDS011;62026;39.230;9.122;2023-02-03T15:34:11;9.80;;;1.55;;
67597;SDS011;62026;39.230;9.122;2023-02-03T15:37:03;6.72;;;1.58;;
67597;SDS011;62026;39.230;9.122;2023-02-03T15:42:46;7.57;;;1.73;;
67597;SDS011;62026;39.230;9.122;2023-02-03T15:45:29;8.73;;;1.70;;
67597;SDS011;62026;39.230;9.122;2023-02-03T15:50:44;7.78;;;1.63;;
67597;SDS011;62026;39.230;9.122;2023-02-03T15:53:25;5.20;;;1.65;;
67597;SDS011;62026;39.230;9.122;2023-02-03T15:56:00;4.72;;;1.50;;
67597;SDS011;62026;39.230;9.122;2023-02-03T15:58:30;8.38;;;1.77;;
67597;SDS011;62026;39.230;9.122;2023-02-03T16:01:06;5.07;;;1.35;;
67597;SDS011;62026;39.230;9.122;2023-02-03T16:03:40;8.85;;;1.60;;
67597;SDS011;62026;39.230;9.122;2023-02-03T16:06:23;7.75;;;1.90;;
67597;SDS011;62026;39.230;9.122;2023-02-03T16:08:51;8.80;;;1.88;;
67597;SDS011;62026;39.230;9.122;2023-02-03T16:11:35;10.48;;;2.35;;
67597;SDS011;62026;39.230;9.122;2023-02-03T16:14:09;9.88;;;2.00;;
67597;SDS011;62026;39.230;9.122;2023-02-03T16:19:16;4.63;;;1.65;;
67597;SDS011;62026;39.230;9.122;2023-02-03T16:27:21;11.35;;;1.83;;
67597;SDS011;62026;39.230;9.122;2023-02-03T16:33:01;8.50;;;2.20;;
67597;SDS011;62026;39.230;9.122;2023-02-03T16:35:55;15.30;;;2.30;;
67597;SDS011;62026;39.230;9.122;2023-02-03T16:38:45;6.72;;;1.83;;
67597;SDS011;62026;39.230;9.122;2023-02-03T16:41:33;11.10;;;2.22;;
67597;SDS011;62026;39.230;9.122;2023-02-03T16:44:20;10.80;;;2.53;;
67597;SDS011;62026;39.230;9.122;2023-02-03T16:50:22;11.20;;;2.30;;
67597;SDS011;62026;39.230;9.122;2023-02-03T16:53:18;6.25;;;2.15;;
67597;SDS011;62026;39.230;9.122;2023-02-03T16:55:56;12.55;;;3.83;;
67597;SDS011;62026;39.230;9.122;2023-02-03T16:58:25;15.10;;;4.35;;
67597;SDS011;62026;39.230;9.122;2023-02-03T17:00:52;10.30;;;4.50;;
67597;SDS011;62026;39.230;9.122;2023-02-03T17:03:24;10.70;;;4.10;;
67597;SDS011;62026;39.230;9.122;2023-02-03T17:05:52;10.38;;;4.47;;
67597;SDS011;62026;39.230;9.122;2023-02-03T17:08:23;14.35;;;4.10;;
67597;SDS011;62026;39.230;9.122;2023-02-03T17:10:50;11.63;;;3.45;;
67597;SDS011;62026;39.230;9.122;2023-02-03T17:13:17;11.27;;;3.97;;
67597;SDS011;62026;39.230;9.122;2023-02-03T17:15:46;13.63;;;3.65;;
67597;SDS011;62026;39.230;9.122;2023-02-03T17:18:16;10.73;;;3.78;;
67597;SDS011;62026;39.230;9.122;2023-02-03T17:20:43;12.90;;;4.05;;
67597;SDS011;62026;39.230;9.122;2023-02-03T17:23:10;16.02;;;4.32;;
67597;SDS011;62026;39.230;9.122;2023-02-03T17:25:37;9.65;;;3.25;;
67597;SDS011;62026;39.230;9.122;2023-02-03T17:28:04;13.18;;;4.10;;
67597;SDS011;62026;39.230;9.122;2023-02-03T17:30:32;11.70;;;3.90;;
67597;SDS011;62026;39.230;9.122;2023-02-03T17:33:00;19.65;;;4.93;;
67597;SDS011;62026;39.230;9.122;2023-02-03T17:35:27;16.40;;;6.38;;
67597;SDS011;62026;39.230;9.122;2023-02-03T17:37:53;18.15;;;7.00;;
67597;SDS011;62026;39.230;9.122;2023-02-03T17:40:19;22.92;;;10.00;;
67597;SDS011;62026;39.230;9.122;2023-02-03T17:42:46;26.13;;;11.32;;
67597;SDS011;62026;39.230;9.122;2023-02-03T17:45:12;21.58;;;8.35;;
67597;SDS011;62026;39.230;9.122;2023-02-03T17:47:38;23.30;;;7.78;;
67597;SDS011;62026;39.230;9.122;2023-02-03T17:50:04;17.65;;;7.60;;
67597;SDS011;62026;39.230;9.122;2023-02-03T17:52:30;21.15;;;8.48;;
67597;SDS011;62026;39.230;9.122;2023-02-03T17:54:56;17.33;;;8.18;;
67597;SDS011;62026;39.230;9.122;2023-02-03T17:57:22;30.52;;;10.15;;
67597;SDS011;62026;39.230;9.122;2023-02-03T17:59:48;27.90;;;14.65;;
67597;SDS011;62026;39.230;9.122;2023-02-03T18:02:18;18.30;;;9.90;;
67597;SDS011;62026;39.230;9.122;2023-02-03T18:04:44;18.58;;;8.55;;
67597;SDS011;62026;39.230;9.122;2023-02-03T18:07:09;20.75;;;7.88;;
67597;SDS011;62026;39.230;9.122;2023-02-03T18:09:35;19.10;;;6.63;;
67597;SDS011;62026;39.230;9.122;2023-02-03T18:12:01;14.00;;;5.47;;
67597;SDS011;62026;39.230;9.122;2023-02-03T18:14:28;18.85;;;6.20;;
67597;SDS011;62026;39.230;9.122;2023-02-03T18:16:54;19.40;;;6.93;;
67597;SDS011;62026;39.230;9.122;2023-02-03T18:19:20;20.63;;;6.55;;
67597;SDS011;62026;39.230;9.122;2023-02-03T18:21:46;13.85;;;5.78;;
67597;SDS011;62026;39.230;9.122;2023-02-03T18:24:12;17.08;;;6.97;;
67597;SDS011;62026;39.230;9.122;2023-02-03T18:26:46;26.35;;;5.63;;
67597;SDS011;62026;39.230;9.122;2023-02-03T18:29:15;15.30;;;5.30;;
67597;SDS011;62026;39.230;9.122;2023-02-03T18:31:41;13.63;;;4.85;;
67597;SDS011;62026;39.230;9.122;2023-02-03T18:34:08;17.75;;;5.50;;
67597;SDS011;62026;39.230;9.122;2023-02-03T18:36:35;18.30;;;6.18;;
67597;SDS011;62026;39.230;9.122;2023-02-03T18:39:01;17.27;;;5.60;;
67597;SDS011;62026;39.230;9.122;2023-02-03T18:41:27;13.95;;;4.80;;
67597;SDS011;62026;39.230;9.122;2023-02-03T18:43:53;12.43;;;4.50;;
67597;SDS011;62026;39.230;9.122;2023-02-03T18:46:20;13.63;;;4.85;;
67597;SDS011;62026;39.230;9.122;2023-02-03T18:48:52;9.88;;;4.20;;
67597;SDS011;62026;39.230;9.122;2023-02-03T18:51:20;13.77;;;4.38;;
67597;SDS011;62026;39.230;9.122;2023-02-03T18:53:48;14.43;;;4.47;;
67597;SDS011;62026;39.230;9.122;2023-02-03T18:56:18;15.50;;;6.15;;
67597;SDS011;62026;39.230;9.122;2023-02-03T18:58:48;35.10;;;15.65;;
67597;SDS011;62026;39.230;9.122;2023-02-03T19:01:28;32.05;;;11.02;;
67597;SDS011;62026;39.230;9.122;2023-02-03T19:03:56;24.38;;;8.70;;
67597;SDS011;62026;39.230;9.122;2023-02-03T19:06:25;55.17;;;22.33;;
67597;SDS011;62026;39.230;9.122;2023-02-03T19:08:54;29.35;;;10.88;;
67597;SDS011;62026;39.230;9.122;2023-02-03T19:11:21;29.10;;;11.25;;
67597;SDS011;62026;39.230;9.122;2023-02-03T19:13:51;19.05;;;6.70;;
67597;SDS011;62026;39.230;9.122;2023-02-03T19:16:17;12.77;;;5.22;;
67597;SDS011;62026;39.230;9.122;2023-02-03T19:18:44;17.05;;;6.18;;
67597;SDS011;62026;39.230;9.122;2023-02-03T19:21:11;21.05;;;5.63;;
67597;SDS011;62026;39.230;9.122;2023-02-03T19:23:39;12.90;;;5.80;;
67597;SDS011;62026;39.230;9.122;2023-02-03T19:26:06;14.20;;;5.60;;
67597;SDS011;62026;39.230;9.122;2023-02-03T19:28:34;16.75;;;6.20;;
67597;SDS011;62026;39.230;9.122;2023-02-03T19:31:11;13.68;;;6.38;;
67597;SDS011;62026;39.230;9.122;2023-02-03T19:33:41;12.88;;;5.90;;
67597;SDS011;62026;39.230;9.122;2023-02-03T19:36:08;18.77;;;6.78;;
67597;SDS011;62026;39.230;9.122;2023-02-03T19:38:35;24.63;;;7.60;;
67597;SDS011;62026;39.230;9.122;2023-02-03T19:41:04;15.00;;;6.68;;
67597;SDS011;62026;39.230;9.122;2023-02-03T19:43:31;16.05;;;6.32;;
67597;SDS011;62026;39.230;9.122;2023-02-03T19:45:58;16.17;;;6.28;;
67597;SDS011;62026;39.230;9.122;2023-02-03T19:48:24;19.20;;;7.20;;
67597;SDS011;62026;39.230;9.122;2023-02-03T19:50:50;15.80;;;7.18;;
67597;SDS011;62026;39.230;9.122;2023-02-03T19:53:16;24.63;;;8.73;;
67597;SDS011;62026;39.230;9.122;2023-02-03T19:55:43;17.25;;;7.00;;
67597;SDS011;62026;39.230;9.122;2023-02-03T19:58:13;13.85;;;6.55;;
67597;SDS011;62026;39.230;9.122;2023-02-03T20:00:40;19.77;;;6.10;;
67597;SDS011;62026;39.230;9.122;2023-02-03T20:03:07;21.95;;;7.43;;
67597;SDS011;62026;39.230;9.122;2023-02-03T20:05:34;13.00;;;5.75;;
67597;SDS011;62026;39.230;9.122;2023-02-03T20:08:01;17.42;;;6.05;;
67597;SDS011;62026;39.230;9.122;2023-02-03T20:10:28;16.48;;;6.03;;
67597;SDS011;62026;39.230;9.122;2023-02-03T20:12:56;15.63;;;6.28;;
67597;SDS011;62026;39.230;9.122;2023-02-03T20:15:23;17.85;;;6.45;;
67597;SDS011;62026;39.230;9.122;2023-02-03T20:17:49;18.15;;;6.80;;
67597;SDS011;62026;39.230;9.122;2023-02-03T20:20:16;13.02;;;5.97;;
67597;SDS011;62026;39.230;9.122;2023-02-03T20:22:42;12.38;;;6.28;;
67597;SDS011;62026;39.230;9.122;2023-02-03T20:25:08;20.45;;;5.97;;
67597;SDS011;62026;39.230;9.122;2023-02-03T20:27:34;17.13;;;6.70;;
67597;SDS011;62026;39.230;9.122;2023-02-03T20:30:00;15.45;;;6.10;;
67597;SDS011;62026;39.230;9.122;2023-02-03T20:32:28;17.52;;;5.72;;
67597;SDS011;62026;39.230;9.122;2023-02-03T20:34:54;18.67;;;6.70;;
67597;SDS011;62026;39.230;9.122;2023-02-03T20:37:20;13.90;;;6.60;;
67597;SDS011;62026;39.230;9.122;2023-02-03T20:39:46;18.10;;;6.20;;